Time;durP1;ratioP1;P1;durP2;ratioP2;P2;SDS_P1;SDS_P2;PMS_P1;PMS_P2;Temp;Humidity;BMP_temperature;BMP_pressure;BME280_temperature;BME280_humidity;BME280_pressure;Samples;Min_cycle;Max_cycle;Signal;HPM_P1;HPM_P2
2021/09/19 00:01:29;;;;;;;;;8.25;7.25;;;;;20.45;61.99;100426.81;5076909;27;45716;-83
2021/09/19 00:03:55;;;;;;;;;8.00;8.00;;;;;20.43;61.99;100422.66;5077240;27;45800;-86
2021/09/19 00:06:20;;;;;;;;;8.00;7.75;;;;;20.41;61.81;100422.81;5076364;27;47703;-78
2021/09/19 00:12:08;;;;;;;;;8.00;7.00;;;;;20.45;62.01;100423.31;5076091;28;45487;-79
2021/09/19 00:14:34;;;;;;;;;9.25;9.25;;;;;20.41;61.99;100419.34;5076471;28;45690;-78
2021/09/19 00:17:01;;;;;;;;;7.25;6.50;;;;;20.36;61.98;100409.22;5075956;27;46327;-79
2021/09/19 00:19:26;;;;;;;;;7.00;7.00;;;;;20.39;62.13;100406.22;5075512;27;46398;-80
2021/09/19 00:21:52;;;;;;;;;11.00;8.00;;;;;20.43;62.01;100412.84;5076112;27;45515;-79
2021/09/19 00:27:39;;;;;;;;;7.25;7.00;;;;;20.32;62.36;100391.13;5067713;28;46212;-78
2021/09/19 00:30:06;;;;;;;;;7.00;6.75;;;;;20.41;62.34;100408.69;5075702;27;45777;-77
2021/09/19 00:32:31;;;;;;;;;6.50;6.50;;;;;20.35;62.36;100394.25;5076272;27;45668;-78
2021/09/19 00:34:57;;;;;;;;;9.50;8.00;;;;;20.40;62.34;100405.22;5076201;27;45750;-81
2021/09/19 00:37:22;;;;;;;;;9.75;8.75;;;;;20.41;62.44;100400.69;5078226;27;47319;-78
2021/09/19 00:43:09;;;;;;;;;7.75;7.25;;;;;20.39;61.92;100398.25;5079966;28;45696;-78
2021/09/19 00:45:35;;;;;;;;;8.75;8.25;;;;;20.35;62.27;100390.78;5078778;27;45752;-81
2021/09/19 00:48:00;;;;;;;;;7.75;7.00;;;;;20.33;62.39;100384.81;5076970;27;45686;-79
2021/09/19 00:50:26;;;;;;;;;9.50;7.25;;;;;20.36;62.36;100392.44;5076293;27;45633;-79
2021/09/19 00:52:52;;;;;;;;;8.50;7.00;;;;;20.37;62.45;100402.06;5074262;28;45804;-78
2021/09/19 00:55:18;;;;;;;;;4.25;4.25;;;;;20.34;62.37;100392.63;5076187;27;45501;-82
2021/09/19 00:57:52;;;;;;;;;7.25;7.25;;;;;20.38;62.00;100396.56;5075849;27;46984;-78
2021/09/19 01:00:22;;;;;;;;;8.25;8.00;;;;;20.37;62.63;100392.25;5075732;27;46204;-78
2021/09/19 01:02:48;;;;;;;;;8.25;8.00;;;;;20.37;62.54;100394.09;5075027;27;45853;-76
2021/09/19 01:05:18;;;;;;;;;9.00;9.00;;;;;20.35;62.71;100391.59;5075972;27;45846;-82
2021/09/19 01:07:46;;;;;;;;;6.00;6.00;;;;;20.32;62.62;100388.47;5075639;27;45487;-78
2021/09/19 01:13:34;;;;;;;;;7.25;7.00;;;;;20.21;62.96;100381.69;5075380;28;45517;-78
2021/09/19 01:16:01;;;;;;;;;7.00;7.00;;;;;20.14;63.32;100378.06;5076063;27;45535;-78
2021/09/19 01:18:28;;;;;;;;;6.75;6.75;;;;;20.07;63.09;100377.97;5075519;27;46448;-77
2021/09/19 01:20:54;;;;;;;;;9.50;8.50;;;;;20.08;63.47;100387.59;5075082;27;45915;-78
2021/09/19 01:23:19;;;;;;;;;8.00;8.00;;;;;20.04;63.34;100380.13;5075169;28;45616;-78
2021/09/19 01:25:49;;;;;;;;;5.00;4.75;;;;;20.03;63.70;100378.47;5075524;27;45638;-78
2021/09/19 01:28:15;;;;;;;;;8.75;8.75;;;;;19.99;63.42;100383.31;5074369;27;46436;-78
2021/09/19 01:30:41;;;;;;;;;8.50;8.00;;;;;19.95;63.64;100373.22;5074568;27;45616;-78
2021/09/19 01:33:07;;;;;;;;;8.00;7.50;;;;;19.87;63.86;100373.25;5074957;27;45774;-79
2021/09/19 01:35:33;;;;;;;;;9.00;8.00;;;;;19.85;63.72;100380.59;5075327;27;45749;-78
2021/09/19 01:37:59;;;;;;;;;8.00;7.00;;;;;19.78;64.06;100363.66;5074923;27;46704;-77
2021/09/19 01:43:46;;;;;;;;;10.00;9.25;;;;;19.81;63.89;100376.63;5078115;28;45745;-78
2021/09/19 01:46:12;;;;;;;;;10.25;9.25;;;;;19.76;64.02;100379.00;5077332;27;45771;-80
2021/09/19 01:48:38;;;;;;;;;8.50;7.00;;;;;19.80;64.19;100374.97;5074636;27;47324;-78
2021/09/19 01:51:06;;;;;;;;;10.00;8.50;;;;;19.79;64.08;100376.81;5074375;27;45880;-78
2021/09/19 01:53:32;;;;;;;;;12.25;11.50;;;;;19.74;64.72;100375.66;5074751;27;45665;-78
2021/09/19 01:55:57;;;;;;;;;8.75;8.25;;;;;19.65;64.67;100372.19;5075124;28;45726;-77
2021/09/19 01:58:24;;;;;;;;;11.00;11.00;;;;;19.67;65.18;100370.19;5075086;27;45468;-78
2021/09/19 02:00:57;;;;;;;;;12.00;10.75;;;;;19.66;65.11;100382.66;5074797;28;45921;-77
2021/09/19 02:03:23;;;;;;;;;13.25;11.00;;;;;19.56;64.94;100374.06;5074976;27;45585;-78
2021/09/19 02:05:48;;;;;;;;;10.25;9.50;;;;;19.60;65.00;100382.53;5077319;27;45679;-77
2021/09/19 02:08:14;;;;;;;;;12.50;11.50;;;;;19.54;65.51;100376.06;5080710;27;46384;-78
2021/09/19 02:14:02;;;;;;;;;12.25;11.75;;;;;19.48;65.30;100360.84;5079607;28;45596;-79
2021/09/19 02:16:27;;;;;;;;;11.75;11.00;;;;;19.52;65.59;100366.63;5075691;27;45523;-79
2021/09/19 02:18:52;;;;;;;;;12.00;11.75;;;;;19.53;66.07;100362.97;5075273;27;45843;-78
2021/09/19 02:21:19;;;;;;;;;14.25;12.00;;;;;19.48;65.89;100363.50;5076538;27;45885;-85
2021/09/19 02:23:44;;;;;;;;;15.75;14.75;;;;;19.35;66.20;100344.56;5090320;27;45888;-78
2021/09/19 02:26:10;;;;;;;;;13.50;13.50;;;;;19.46;66.14;100367.31;5074602;27;45439;-76
2021/09/19 02:28:35;;;;;;;;;8.00;7.75;;;;;19.24;66.39;100321.88;5073896;28;46677;-77
2021/09/19 02:31:01;;;;;;;;;13.25;11.75;;;;;19.38;66.31;100349.53;5073894;27;45477;-81
2021/09/19 02:33:27;;;;;;;;;11.75;11.75;;;;;19.36;66.53;100361.34;5074060;28;45908;-78
2021/09/19 02:35:52;;;;;;;;;12.75;12.00;;;;;19.34;66.71;100342.91;5074226;27;45605;-80
2021/09/19 02:38:18;;;;;;;;;13.75;12.75;;;;;19.37;66.71;100360.34;5074252;27;46400;-78
2021/09/19 02:44:05;;;;;;;;;14.75;14.75;;;;;19.36;66.58;100350.72;5074749;28;45766;-85
2021/09/19 02:46:31;;;;;;;;;13.25;11.75;;;;;19.27;66.61;100342.75;5075985;27;45613;-79
2021/09/19 02:48:56;;;;;;;;;13.50;12.75;;;;;19.24;66.69;100335.16;5076389;27;45539;-80
2021/09/19 02:51:22;;;;;;;;;12.50;12.25;;;;;19.21;67.12;100332.00;5076384;27;45659;-80
2021/09/19 02:53:47;;;;;;;;;15.00;13.00;;;;;19.30;66.63;100341.59;5075170;27;45872;-80
2021/09/19 02:56:12;;;;;;;;;13.50;12.50;;;;;19.22;66.64;100334.47;5074675;28;45783;-78
2021/09/19 02:58:38;;;;;;;;;15.00;13.50;;;;;19.28;66.99;100333.78;5074329;27;46780;-79
2021/09/19 03:01:04;;;;;;;;;13.50;13.25;;;;;19.27;66.99;100334.78;5073842;27;45875;-80
2021/09/19 03:03:30;;;;;;;;;13.75;12.50;;;;;19.27;67.05;100332.13;5073882;27;45839;-76
2021/09/19 03:05:55;;;;;;;;;12.25;11.50;;;;;19.24;66.99;100329.84;5074116;27;45604;-80
2021/09/19 03:08:20;;;;;;;;;15.00;14.00;;;;;19.22;67.34;100333.66;5074126;27;45661;-77
2021/09/19 03:14:07;;;;;;;;;14.50;14.25;;;;;19.25;67.21;100325.34;5075266;28;45509;-80
2021/09/19 03:16:33;;;;;;;;;16.00;13.50;;;;;19.25;67.27;100323.53;5075561;27;45643;-78
2021/09/19 03:18:58;;;;;;;;;13.75;13.00;;;;;19.25;66.96;100325.34;5074642;27;45679;-80
2021/09/19 03:21:24;;;;;;;;;12.25;11.75;;;;;19.27;66.83;100326.81;5076660;27;45739;-78
2021/09/19 03:23:49;;;;;;;;;12.00;12.00;;;;;19.24;66.99;100313.06;5076846;28;46057;-79
2021/09/19 03:29:49;;;;;;;;;16.00;15.00;;;;;19.28;67.36;100325.00;5069126;28;45729;-81
2021/09/19 03:32:14;;;;;;;;;14.50;13.00;;;;;19.29;67.16;100322.16;5078314;27;46912;-81
2021/09/19 03:34:40;;;;;;;;;16.75;15.50;;;;;19.22;67.19;100315.06;5078724;27;45737;-77
2021/09/19 03:37:05;;;;;;;;;15.00;14.00;;;;;19.29;67.06;100327.47;5078424;27;45863;-77
2021/09/19 03:39:31;;;;;;;;;13.75;13.25;;;;;19.25;67.08;100320.03;5077724;27;45808;-78
2021/09/19 03:41:56;;;;;;;;;12.50;12.00;;;;;19.19;67.67;100318.06;5082668;27;45621;-77
2021/09/19 03:44:22;;;;;;;;;16.00;15.00;;;;;19.15;67.72;100308.78;5084613;27;45554;-78
2021/09/19 03:46:47;;;;;;;;;15.00;14.00;;;;;19.10;67.93;100303.16;5083213;27;45615;-78
2021/09/19 03:49:12;;;;;;;;;18.25;15.00;;;;;19.20;67.17;100317.06;5081826;27;46392;-78
2021/09/19 03:51:39;;;;;;;;;12.00;12.00;;;;;19.12;67.81;100309.13;5077443;27;45666;-81
2021/09/19 03:54:04;;;;;;;;;14.75;14.50;;;;;19.14;67.70;100321.25;5077300;27;45726;-78
2021/09/19 03:59:51;;;;;;;;;15.25;13.75;;;;;19.12;68.20;100323.22;5076493;28;45687;-78
2021/09/19 04:02:17;;;;;;;;;14.25;13.25;;;;;19.11;68.03;100326.06;5076409;27;45799;-81
2021/09/19 04:04:42;;;;;;;;;16.25;15.25;;;;;19.08;67.84;100318.44;5076780;27;45796;-78
2021/09/19 04:07:07;;;;;;;;;15.25;14.75;;;;;19.07;68.03;100324.75;5076586;27;45600;-80
2021/09/19 04:09:33;;;;;;;;;16.50;16.25;;;;;19.09;67.62;100325.41;5076041;27;45479;-81
2021/09/19 04:11:58;;;;;;;;;15.75;15.00;;;;;19.07;68.13;100322.91;5076606;27;45507;-82
2021/09/19 04:14:24;;;;;;;;;18.25;16.50;;;;;19.02;67.94;100314.63;5076697;27;45669;-82
2021/09/19 04:16:50;;;;;;;;;18.25;17.00;;;;;19.07;67.57;100338.00;5076809;28;45676;-77
2021/09/19 04:19:15;;;;;;;;;18.00;17.00;;;;;19.03;67.64;100316.28;5076612;27;45552;-77
2021/09/19 04:21:40;;;;;;;;;14.50;14.50;;;;;19.02;67.62;100327.06;5077803;27;45553;-79
2021/09/19 04:24:06;;;;;;;;;14.00;13.75;;;;;18.99;67.73;100320.28;5078609;27;45589;-82
2021/09/19 04:29:53;;;;;;;;;16.50;14.75;;;;;18.95;67.40;100326.91;5072464;28;45663;-77
2021/09/19 04:32:19;;;;;;;;;18.25;16.00;;;;;18.96;67.32;100336.56;5075280;27;45590;-78
2021/09/19 04:34:44;;;;;;;;;17.50;17.25;;;;;18.96;67.61;100330.41;5076209;27;45702;-79
2021/09/19 04:37:13;;;;;;;;;14.50;13.25;;;;;18.96;67.31;100333.91;5076674;28;45784;-79
2021/09/19 04:39:40;;;;;;;;;16.25;15.25;;;;;18.92;67.28;100337.06;5076089;28;46520;-78
2021/09/19 04:42:06;;;;;;;;;15.00;14.50;;;;;18.94;67.33;100337.72;5076119;28;46651;-78
2021/09/19 04:44:31;;;;;;;;;17.00;15.50;;;;;18.97;67.17;100346.19;5076356;27;45612;-77
2021/09/19 04:46:57;;;;;;;;;17.00;14.50;;;;;18.97;66.86;100348.84;5076703;27;45629;-82
2021/09/19 04:49:22;;;;;;;;;15.75;14.75;;;;;18.84;66.91;100321.97;5076989;27;45545;-81
2021/09/19 04:51:47;;;;;;;;;13.00;12.75;;;;;18.96;67.16;100355.13;5076786;27;45526;-83
2021/09/19 04:54:12;;;;;;;;;15.50;14.25;;;;;18.95;66.82;100348.16;5076889;27;45595;-78
2021/09/19 04:59:59;;;;;;;;;14.00;13.25;;;;;18.95;66.59;100347.38;5075612;28;45648;-79
2021/09/19 05:02:25;;;;;;;;;12.50;12.50;;;;;18.84;66.45;100338.72;5076454;27;47159;-79
2021/09/19 05:04:50;;;;;;;;;13.50;12.75;;;;;18.95;66.22;100355.31;5076911;27;45573;-82
2021/09/19 05:07:16;;;;;;;;;16.00;15.00;;;;;18.92;66.03;100353.00;5078295;27;45570;-79
2021/09/19 05:09:42;;;;;;;;;14.75;14.25;;;;;18.97;66.16;100348.00;5078054;27;45563;-78
2021/09/19 05:12:07;;;;;;;;;17.25;17.00;;;;;18.95;65.87;100345.50;5078493;27;45995;-80
2021/09/19 05:14:33;;;;;;;;;14.50;14.00;;;;;18.84;65.44;100337.91;5083416;28;45437;-85
2021/09/19 05:16:58;;;;;;;;;15.50;14.25;;;;;18.89;65.54;100351.53;5083979;27;45487;-78
2021/09/19 05:19:24;;;;;;;;;13.50;12.25;;;;;18.78;64.74;100334.13;5083865;27;45716;-78
2021/09/19 05:21:49;;;;;;;;;13.25;13.25;;;;;18.75;64.63;100330.94;5083639;27;45933;-79
2021/09/19 05:24:14;;;;;;;;;15.25;14.25;;;;;18.81;64.51;100351.53;5084303;28;45605;-80
2021/09/19 05:30:05;;;;;;;;;13.00;13.00;;;;;18.71;63.66;100348.22;5075644;28;45580;-85
2021/09/19 05:32:30;;;;;;;;;13.00;12.00;;;;;18.69;64.06;100350.19;5077516;27;46082;-78
2021/09/19 05:34:55;;;;;;;;;13.25;12.25;;;;;18.64;63.34;100344.56;5076784;28;45486;-79
2021/09/19 05:37:21;;;;;;;;;13.25;13.00;;;;;18.63;63.63;100340.25;5075925;27;45473;-80
2021/09/19 05:39:46;;;;;;;;;12.00;12.00;;;;;18.65;63.46;100354.19;5074871;27;46487;-77
2021/09/19 05:45:33;;;;;;;;;13.00;13.00;;;;;18.57;63.08;100352.34;5075536;28;45831;-81
2021/09/19 05:47:59;;;;;;;;;14.75;14.00;;;;;18.59;63.19;100363.66;5076115;27;45983;-79
2021/09/19 05:50:25;;;;;;;;;14.25;13.75;;;;;18.54;62.88;100371.28;5075746;27;46594;-77
2021/09/19 05:52:50;;;;;;;;;15.25;15.25;;;;;18.53;62.58;100366.94;5078263;27;45636;-83
2021/09/19 05:55:16;;;;;;;;;12.50;12.50;;;;;18.46;62.81;100366.75;5076418;27;45637;-87
2021/09/19 05:57:42;;;;;;;;;13.00;12.75;;;;;18.33;63.01;100344.38;5075148;28;45596;-87
2021/09/19 06:00:08;;;;;;;;;17.00;16.25;;;;;18.48;62.82;100373.72;5075100;27;45667;-82
2021/09/19 06:02:34;;;;;;;;;12.75;12.75;;;;;18.45;62.91;100365.13;5075457;28;46236;-77
2021/09/19 06:04:59;;;;;;;;;13.00;13.00;;;;;18.48;62.97;100381.69;5074939;27;45707;-78
2021/09/19 06:07:25;;;;;;;;;16.00;15.75;;;;;18.48;62.36;100381.69;5075417;27;45739;-80
2021/09/19 06:09:50;;;;;;;;;13.00;13.00;;;;;18.40;62.25;100374.56;5075776;27;45591;-82
2021/09/19 06:15:37;;;;;;;;;15.00;14.00;;;;;18.42;62.66;100388.47;5074589;28;45509;-79
2021/09/19 06:18:03;;;;;;;;;14.50;12.25;;;;;18.44;62.64;100383.84;5074894;27;45520;-79
2021/09/19 06:20:28;;;;;;;;;15.00;15.00;;;;;18.24;62.75;100348.88;5074334;27;46401;-81
2021/09/19 06:22:54;;;;;;;;;14.00;12.75;;;;;18.45;62.52;100388.16;5074201;27;45640;-78
2021/09/19 06:25:19;;;;;;;;;14.75;14.00;;;;;18.42;62.50;100385.81;5074266;27;45676;-78
2021/09/19 06:27:45;;;;;;;;;15.25;13.50;;;;;18.40;62.00;100385.19;5074846;27;45563;-79
2021/09/19 06:30:11;;;;;;;;;13.25;13.25;;;;;18.35;62.09;100398.91;5073706;28;46353;-78
2021/09/19 06:32:36;;;;;;;;;14.00;14.00;;;;;18.10;62.52;100352.16;5075772;27;46131;-78
2021/09/19 06:35:02;;;;;;;;;13.25;13.25;;;;;18.34;62.10;100389.31;5074372;27;45676;-82
2021/09/19 06:37:27;;;;;;;;;15.75;14.50;;;;;18.36;61.82;100400.56;5074443;27;45784;-81
2021/09/19 06:39:53;;;;;;;;;15.00;14.25;;;;;18.35;62.23;100396.25;5075529;27;45636;-79
2021/09/19 06:45:40;;;;;;;;;13.00;12.25;;;;;18.33;62.22;100382.34;5076821;28;45582;-87
2021/09/19 06:48:05;;;;;;;;;13.50;12.75;;;;;18.36;62.06;100394.44;5074901;28;45849;-81
2021/09/19 06:50:31;;;;;;;;;14.00;14.00;;;;;18.34;62.00;100391.16;5075747;27;45548;-80
2021/09/19 06:52:56;;;;;;;;;14.75;14.00;;;;;18.36;62.12;100391.78;5074803;27;45738;-79
2021/09/19 06:55:22;;;;;;;;;15.75;14.75;;;;;18.39;61.94;100402.09;5078457;28;45605;-78
2021/09/19 07:01:09;;;;;;;;;13.00;12.00;;;;;18.43;61.53;100398.94;5083027;28;45908;-83
2021/09/19 07:03:37;;;;;;;;;13.00;12.50;;;;;18.39;61.59;100405.56;5082523;27;47568;-82
2021/09/19 07:06:03;;;;;;;;;14.50;14.00;;;;;18.42;61.63;100405.22;5084825;27;45608;-82
2021/09/19 07:08:28;;;;;;;;;15.00;14.00;;;;;18.41;61.79;100394.78;5080866;27;45537;-81
2021/09/19 07:10:54;;;;;;;;;15.25;14.25;;;;;18.40;61.55;100395.78;5080300;27;47309;-80
2021/09/19 07:13:21;;;;;;;;;15.75;14.25;;;;;18.53;61.86;100416.50;5079764;27;45506;-78
2021/09/19 07:15:52;;;;;;;;;14.25;13.00;;;;;18.57;61.46;100423.19;5080141;27;45533;-79
2021/09/19 07:18:21;;;;;;;;;13.75;13.75;;;;;18.60;61.44;100418.38;5078495;27;45749;-78
2021/09/19 07:20:48;;;;;;;;;13.50;12.50;;;;;18.61;61.57;100430.66;5077494;27;47847;-77
2021/09/19 07:23:14;;;;;;;;;14.75;13.00;;;;;18.65;61.32;100432.00;5078216;27;46239;-78
2021/09/19 07:25:40;;;;;;;;;14.25;14.25;;;;;18.60;61.44;100418.38;5077767;27;45709;-79
2021/09/19 07:28:06;;;;;;;;;15.25;14.25;;;;;18.70;61.54;100439.44;5077954;27;45693;-79
2021/09/19 07:30:32;;;;;;;;;14.00;13.50;;;;;18.73;60.96;100437.28;5077997;28;46385;-80
2021/09/19 07:32:58;;;;;;;;;15.00;14.25;;;;;18.75;61.15;100431.81;5077503;27;46230;-77
2021/09/19 07:35:24;;;;;;;;;12.75;12.75;;;;;18.77;61.13;100446.59;5077567;27;45603;-82
2021/09/19 07:37:49;;;;;;;;;13.50;12.50;;;;;18.81;60.96;100437.28;5078601;27;45501;-81
2021/09/19 07:40:16;;;;;;;;;14.00;13.50;;;;;18.83;61.21;100437.97;5078718;28;46992;-78
2021/09/19 07:46:03;;;;;;;;;16.00;15.00;;;;;18.89;60.98;100454.22;5078954;28;45813;-78
2021/09/19 07:48:30;;;;;;;;;16.50;16.25;;;;;18.82;60.66;100436.31;5080761;27;45628;-79
2021/09/19 07:50:55;;;;;;;;;17.50;16.25;;;;;18.91;61.01;100452.22;5095594;27;46836;-79
2021/09/19 07:53:21;;;;;;;;;16.75;16.75;;;;;18.92;61.00;100460.03;5079838;27;46045;-80
2021/09/19 07:55:46;;;;;;;;;15.00;15.00;;;;;18.96;61.01;100460.50;5079765;27;45899;-75
2021/09/19 08:01:34;;;;;;;;;16.75;15.00;;;;;19.01;60.80;100474.94;5076372;28;45975;-77
2021/09/19 08:03:59;;;;;;;;;17.25;15.50;;;;;18.97;60.37;100457.69;5076118;27;45608;-77
2021/09/19 08:06:25;;;;;;;;;19.00;16.25;;;;;19.08;60.81;100481.25;5076579;27;45614;-76
2021/09/19 08:08:52;;;;;;;;;16.75;16.75;;;;;19.02;60.33;100473.97;5077181;27;45515;-77
2021/09/19 08:11:18;;;;;;;;;14.50;14.00;;;;;19.08;60.40;100475.94;5079479;27;46479;-76
2021/09/19 08:13:46;;;;;;;;;18.50;17.50;;;;;19.13;60.52;100488.72;5078536;27;46353;-77
2021/09/19 08:16:11;;;;;;;;;14.75;13.00;;;;;19.11;60.26;100483.56;5076905;27;45725;-76
2021/09/19 08:18:37;;;;;;;;;15.00;14.50;;;;;19.11;60.63;100480.13;5078562;27;45615;-77
2021/09/19 08:21:03;;;;;;;;;16.25;14.25;;;;;18.99;60.15;100462.84;5088026;27;46886;-77
2021/09/19 08:23:29;;;;;;;;;14.25;14.00;;;;;19.08;60.28;100475.13;5084738;27;45362;-77
2021/09/19 08:25:55;;;;;;;;;18.50;15.25;;;;;19.13;60.36;100489.56;5084244;27;45515;-76
2021/09/19 08:31:42;;;;;;;;;16.25;16.25;;;;;19.06;60.23;100480.59;5074520;28;46150;-76
2021/09/19 08:34:08;;;;;;;;;16.75;14.75;;;;;19.17;60.47;100498.00;5081056;27;45691;-77
2021/09/19 08:36:34;;;;;;;;;18.50;18.00;;;;;19.18;59.69;100492.53;5078357;27;45601;-77
2021/09/19 08:39:00;;;;;;;;;15.00;14.50;;;;;19.23;59.84;100498.19;5076327;28;45781;-78
2021/09/19 08:41:25;;;;;;;;;18.50;17.25;;;;;19.26;60.18;100510.31;5076075;27;46590;-76
2021/09/19 08:43:52;;;;;;;;;12.50;12.50;;;;;19.25;60.22;100504.16;5075931;27;45643;-75
2021/09/19 08:46:19;;;;;;;;;14.25;14.00;;;;;19.24;60.18;100521.09;5076198;28;45592;-77
2021/09/19 08:48:45;;;;;;;;;15.75;14.50;;;;;19.22;60.54;100519.59;5076225;27;45800;-77
2021/09/19 08:51:11;;;;;;;;;16.50;15.50;;;;;19.28;60.34;100519.75;5075804;27;46168;-77
2021/09/19 08:53:37;;;;;;;;;17.25;16.00;;;;;19.26;60.35;100513.81;5075393;28;45710;-76
2021/09/19 08:56:04;;;;;;;;;17.00;16.00;;;;;19.30;60.75;100522.25;5075988;27;45620;-77
2021/09/19 09:02:00;;;;;;;;;17.00;14.75;;;;;19.24;60.04;100529.06;5075368;28;45621;-76
2021/09/19 09:04:26;;;;;;;;;18.25;16.25;;;;;19.24;60.67;100531.72;5075861;27;45539;-78
2021/09/19 09:06:53;;;;;;;;;16.25;16.00;;;;;19.23;60.29;100535.38;5076441;28;45616;-76
2021/09/19 09:09:19;;;;;;;;;18.25;17.25;;;;;19.24;60.63;100528.22;5076527;27;45685;-77
2021/09/19 09:12:07;;;;;;;;;18.25;17.75;;;;;19.27;60.12;100544.66;5076773;27;45466;-77
2021/09/19 09:14:39;;;;;;;;;17.25;16.75;;;;;19.28;60.31;100546.31;5077817;28;45913;-77
2021/09/19 09:17:17;;;;;;;;;17.00;16.00;;;;;19.29;60.21;100555.13;5076274;27;45714;-77
2021/09/19 09:19:45;;;;;;;;;17.50;16.50;;;;;19.30;60.43;100548.81;5075799;27;45420;-77
2021/09/19 09:22:11;;;;;;;;;16.50;15.75;;;;;19.28;60.16;100556.94;5075842;27;46509;-77
2021/09/19 09:24:41;;;;;;;;;16.50;14.75;;;;;19.28;60.01;100561.44;5075517;27;45771;-77
2021/09/19 09:27:24;;;;;;;;;17.50;15.25;;;;;19.28;60.50;100562.25;5075306;27;45844;-76
2021/09/19 09:30:09;;;;;;;;;19.50;18.25;;;;;19.28;59.89;100561.44;5075911;27;45494;-76
2021/09/19 09:32:54;;;;;;;;;13.25;11.50;;;;;19.28;60.32;100558.78;5075275;27;45798;-75
2021/09/19 09:35:25;;;;;;;;;14.75;14.75;;;;;19.22;60.18;100559.44;5074864;28;46684;-77
2021/09/19 09:37:51;;;;;;;;;14.75;14.25;;;;;19.28;59.87;100562.25;5075604;27;45673;-77
2021/09/19 09:40:31;;;;;;;;;18.00;17.25;;;;;19.29;60.28;100566.59;5075430;27;45620;-77
2021/09/19 09:43:10;;;;;;;;;16.25;14.50;;;;;19.32;60.53;100562.78;5075409;27;45481;-77
2021/09/19 09:45:38;;;;;;;;;18.00;17.50;;;;;19.34;60.20;100563.44;5074988;27;45585;-75
2021/09/19 09:48:31;;;;;;;;;15.00;13.75;;;;;19.36;60.19;100561.44;5075256;27;45866;-77
2021/09/19 09:51:01;;;;;;;;;15.00;14.50;;;;;19.39;60.37;100571.72;5075262;28;45888;-77
2021/09/19 09:53:28;;;;;;;;;16.00;14.75;;;;;19.33;60.29;100553.78;5074422;27;46376;-77
2021/09/19 09:55:54;;;;;;;;;15.50;15.00;;;;;19.44;59.86;100571.22;5074844;27;45955;-77
2021/09/19 09:58:21;;;;;;;;;16.00;15.50;;;;;19.46;60.16;100567.44;5075161;27;45619;-75
2021/09/19 10:00:50;;;;;;;;;15.25;14.25;;;;;19.50;59.87;100573.25;5074427;27;45895;-77
2021/09/19 10:03:16;;;;;;;;;16.50;15.00;;;;;19.53;59.95;100571.09;5074215;27;46612;-74
2021/09/19 10:05:42;;;;;;;;;17.50;17.50;;;;;19.55;59.82;100558.47;5074554;27;47850;-75
2021/09/19 10:08:08;;;;;;;;;17.25;16.00;;;;;19.60;59.58;100569.41;5074350;27;45569;-77
2021/09/19 10:10:40;;;;;;;;;16.50;15.75;;;;;19.64;59.85;100567.28;5074701;27;45582;-75
2021/09/19 10:13:06;;;;;;;;;16.00;15.50;;;;;19.70;59.67;100580.69;5074418;27;46620;-74
2021/09/19 10:15:32;;;;;;;;;15.00;14.00;;;;;19.74;59.60;100575.88;5074353;27;46589;-74
2021/09/19 10:17:58;;;;;;;;;15.50;14.75;;;;;19.77;59.47;100580.03;5074756;27;45757;-74
2021/09/19 10:20:30;;;;;;;;;16.25;15.00;;;;;19.78;59.54;100569.22;5075013;27;45691;-77
2021/09/19 10:23:20;;;;;;;;;11.50;11.25;;;;;19.88;59.76;100574.34;5074525;27;47305;-77
2021/09/19 10:25:50;;;;;;;;;18.00;15.75;;;;;19.93;59.18;100572.84;5074459;28;46519;-78
2021/09/19 10:28:25;;;;;;;;;21.50;17.50;;;;;19.92;59.38;100563.19;5075462;27;45706;-78
2021/09/19 10:31:09;;;;;;;;;15.00;14.75;;;;;20.05;59.34;100573.31;5074190;27;45806;-78
2021/09/19 10:33:35;;;;;;;;;14.50;14.25;;;;;20.09;59.53;100569.31;5074694;27;45438;-78
2021/09/19 10:36:01;;;;;;;;;15.75;15.75;;;;;19.95;59.33;100533.63;5090222;27;48065;-80
2021/09/19 10:38:37;;;;;;;;;14.25;13.50;;;;;20.19;59.00;100564.59;5074859;27;45442;-80
2021/09/19 10:41:21;;;;;;;;;15.00;13.75;;;;;20.20;59.05;100568.09;5073528;28;45593;-80
2021/09/19 10:44:01;;;;;;;;;17.25;15.75;;;;;20.18;58.81;100546.19;5075037;27;45622;-82
2021/09/19 10:46:36;;;;;;;;;14.25;13.75;;;;;20.30;58.74;100566.91;5073454;28;47275;-80
2021/09/19 10:49:17;;;;;;;;;17.50;16.25;;;;;20.37;58.52;100570.56;5074788;27;45770;-78
2021/09/19 10:52:01;;;;;;;;;15.50;14.75;;;;;20.47;58.51;100583.66;5074776;27;45529;-78
2021/09/19 10:54:48;;;;;;;;;18.75;15.50;;;;;20.49;58.38;100582.50;5074273;27;45975;-78
2021/09/19 11:00:39;;;;;;;;;17.25;14.25;;;;;20.61;58.14;100585.59;5074083;28;45708;-77
2021/09/19 11:03:28;;;;;;;;;11.50;11.25;;;;;20.67;58.07;100595.56;5074679;27;45700;-78
2021/09/19 11:05:57;;;;;;;;;17.75;15.75;;;;;20.70;58.13;100579.22;5071863;28;45767;-78
2021/09/19 11:08:22;;;;;;;;;14.25;12.75;;;;;20.75;58.08;100579.53;5072305;28;46594;-79
2021/09/19 11:10:52;;;;;;;;;16.50;16.25;;;;;20.80;57.73;100576.31;5071771;28;45756;-78
2021/09/19 11:16:40;;;;;;;;;18.75;18.00;;;;;20.83;57.58;100562.69;5071788;28;46029;-79
2021/09/19 11:19:10;;;;;;;;;15.50;15.50;;;;;20.87;57.54;100572.78;5071685;28;46023;-79
2021/09/19 11:21:40;;;;;;;;;18.75;18.00;;;;;20.95;57.49;100571.91;5071762;28;45796;-79
2021/09/19 11:24:09;;;;;;;;;15.25;14.75;;;;;21.03;57.39;100573.69;5071909;28;45680;-80
2021/09/19 11:26:44;;;;;;;;;30.00;28.75;;;;;21.03;57.55;100579.00;5071634;28;46344;-76
2021/09/19 11:32:30;;;;;;;;;19.75;18.00;;;;;21.17;56.83;100589.75;5064748;28;45742;-80
2021/09/19 11:34:58;;;;;;;;;18.25;18.25;;;;;21.11;56.77;100574.44;5071798;28;46050;-78
2021/09/19 11:37:26;;;;;;;;;18.00;15.50;;;;;21.14;57.05;100562.63;5071618;27;46043;-76
2021/09/19 11:39:53;;;;;;;;;15.25;14.75;;;;;21.20;57.14;100577.94;5071679;28;46146;-79
2021/09/19 11:42:19;;;;;;;;;19.00;17.25;;;;;21.37;56.95;100600.78;5074583;28;45830;-79
2021/09/19 11:48:07;;;;;;;;;18.50;16.25;;;;;21.35;56.24;100592.13;5077296;28;45729;-78
2021/09/19 11:50:37;;;;;;;;;16.00;16.00;;;;;21.52;55.94;100600.81;5092655;27;46455;-80
2021/09/19 11:53:07;;;;;;;;;16.75;16.50;;;;;21.56;56.24;100607.44;5077615;28;45620;-79
2021/09/19 11:55:33;;;;;;;;;17.50;17.50;;;;;21.58;55.98;100600.94;5081663;28;45532;-79
2021/09/19 11:58:00;;;;;;;;;15.00;14.75;;;;;21.65;56.22;100609.00;5083311;28;45779;-79
2021/09/19 12:00:30;;;;;;;;;17.50;17.50;;;;;21.67;55.54;100605.16;5083422;27;45908;-79
2021/09/19 12:02:55;;;;;;;;;17.75;17.25;;;;;21.47;55.97;100553.38;5083132;27;45546;-80
2021/09/19 12:05:24;;;;;;;;;16.75;15.50;;;;;21.69;55.36;100594.34;5083439;27;45474;-80
2021/09/19 12:07:50;;;;;;;;;19.25;17.50;;;;;21.80;55.27;100614.41;5077940;28;45720;-81
2021/09/19 12:10:16;;;;;;;;;20.00;18.00;;;;;21.81;55.33;100614.19;5076672;27;46289;-79
2021/09/19 12:12:41;;;;;;;;;20.75;18.00;;;;;21.87;55.44;100600.13;5077306;27;45622;-79
2021/09/19 12:18:35;;;;;;;;;18.75;17.25;;;;;21.95;55.20;100610.78;5076892;28;45934;-79
2021/09/19 12:21:12;;;;;;;;;17.25;16.25;;;;;22.00;54.45;100610.22;5077389;28;46046;-77
2021/09/19 12:23:58;;;;;;;;;20.00;18.50;;;;;22.04;54.81;100612.34;5076527;28;45541;-80
2021/09/19 12:26:31;;;;;;;;;19.00;17.00;;;;;22.05;54.73;100614.00;5076690;27;45678;-79
2021/09/19 12:29:08;;;;;;;;;18.00;17.50;;;;;22.06;54.67;100596.97;5076572;27;45572;-79
2021/09/19 12:31:41;;;;;;;;;18.50;17.25;;;;;22.15;54.78;100605.72;5075040;28;47908;-78
2021/09/19 12:34:10;;;;;;;;;19.00;18.50;;;;;22.19;54.29;100598.97;5077438;27;45740;-84
2021/09/19 12:36:40;;;;;;;;;18.00;16.75;;;;;22.17;54.51;100585.84;5078658;27;45579;-85
2021/09/19 12:39:05;;;;;;;;;18.00;16.50;;;;;22.24;54.35;100585.09;5077705;27;46753;-82
2021/09/19 12:41:31;;;;;;;;;18.50;17.75;;;;;22.33;54.31;100579.47;5075052;28;47867;-79